sensor_id;sensor_type;location;lat;lon;timestamp;temperature;humidity
74588;SHT31;63088;51.090;-115.358;2022-08-23T21:13:31;23.33;48.16
74588;SHT31;63088;51.090;-115.358;2022-08-23T21:15:59;23.40;48.73
74588;SHT31;63088;51.090;-115.358;2022-08-23T21:18:26;23.45;49.19
74588;SHT31;63088;51.090;-115.358;2022-08-23T21:20:56;23.52;49.04
74588;SHT31;63088;51.090;-115.358;2022-08-23T21:23:24;23.60;48.75
74588;SHT31;63088;51.090;-115.358;2022-08-23T21:25:52;23.67;48.17
74588;SHT31;63088;51.090;-115.358;2022-08-23T21:28:25;23.70;47.55
74588;SHT31;63088;51.090;-115.358;2022-08-23T21:30:53;23.70;46.99
74588;SHT31;63088;51.090;-115.358;2022-08-23T21:33:31;23.72;46.47
74588;SHT31;63088;51.090;-115.358;2022-08-23T21:35:58;23.76;46.00
74588;SHT31;63088;51.090;-115.358;2022-08-23T21:38:28;23.81;45.82
74588;SHT31;63088;51.090;-115.358;2022-08-23T21:40:55;23.87;45.49
74588;SHT31;63088;51.090;-115.358;2022-08-23T21:43:25;23.93;45.46
74588;SHT31;63088;51.090;-115.358;2022-08-23T21:45:54;23.99;45.60
74588;SHT31;63088;51.090;-115.358;2022-08-23T21:48:22;24.01;45.52
74588;SHT31;63088;51.090;-115.358;2022-08-23T21:50:50;24.01;45.16
74588;SHT31;63088;51.090;-115.358;2022-08-23T21:53:18;23.98;44.73
74588;SHT31;63088;51.090;-115.358;2022-08-23T21:55:46;23.96;44.36
74588;SHT31;63088;51.090;-115.358;2022-08-23T21:58:13;23.95;44.75
74588;SHT31;63088;51.090;-115.358;2022-08-23T22:00:40;23.98;45.51
74588;SHT31;63088;51.090;-115.358;2022-08-23T22:03:11;24.01;46.16
74588;SHT31;63088;51.090;-115.358;2022-08-23T22:05:39;24.07;46.48
74588;SHT31;63088;51.090;-115.358;2022-08-23T22:08:08;24.11;46.27
74588;SHT31;63088;51.090;-115.358;2022-08-23T22:10:40;24.14;45.85
74588;SHT31;63088;51.090;-115.358;2022-08-23T22:13:19;24.13;45.28
74588;SHT31;63088;51.090;-115.358;2022-08-23T22:15:49;24.14;44.71
74588;SHT31;63088;51.090;-115.358;2022-08-23T22:18:16;24.15;44.17
74588;SHT31;63088;51.090;-115.358;2022-08-23T22:20:43;24.15;44.02
74588;SHT31;63088;51.090;-115.358;2022-08-23T22:23:10;24.16;44.63
74588;SHT31;63088;51.090;-115.358;2022-08-23T22:25:37;24.19;45.31
74588;SHT31;63088;51.090;-115.358;2022-08-23T22:28:04;24.21;45.91
74588;SHT31;63088;51.090;-115.358;2022-08-23T22:30:34;24.21;46.53
74588;SHT31;63088;51.090;-115.358;2022-08-23T22:33:07;24.19;46.62
74588;SHT31;63088;51.090;-115.358;2022-08-23T22:35:35;24.17;46.99
74588;SHT31;63088;51.090;-115.358;2022-08-23T22:38:02;24.18;47.22
74588;SHT31;63088;51.090;-115.358;2022-08-23T22:40:29;24.21;47.07
74588;SHT31;63088;51.090;-115.358;2022-08-23T22:42:56;24.23;46.81
74588;SHT31;63088;51.090;-115.358;2022-08-23T22:45:22;24.24;46.53
74588;SHT31;63088;51.090;-115.358;2022-08-23T22:47:49;24.26;46.29
74588;SHT31;63088;51.090;-115.358;2022-08-23T22:50:16;24.28;46.42
74588;SHT31;63088;51.090;-115.358;2022-08-23T22:53:04;24.29;47.00
74588;SHT31;63088;51.090;-115.358;2022-08-23T22:55:30;24.29;47.33
74588;SHT31;63088;51.090;-115.358;2022-08-23T22:57:57;24.28;47.64
74588;SHT31;63088;51.090;-115.358;2022-08-23T23:00:24;24.37;47.66
74588;SHT31;63088;51.090;-115.358;2022-08-23T23:02:52;24.40;47.50
74588;SHT31;63088;51.090;-115.358;2022-08-23T23:05:19;24.41;47.40
74588;SHT31;63088;51.090;-115.358;2022-08-23T23:07:46;24.42;47.36
74588;SHT31;63088;51.090;-115.358;2022-08-23T23:10:32;24.45;47.30
74588;SHT31;63088;51.090;-115.358;2022-08-23T23:12:59;24.46;47.22
74588;SHT31;63088;51.090;-115.358;2022-08-23T23:15:26;24.48;47.19
74588;SHT31;63088;51.090;-115.358;2022-08-23T23:17:53;24.48;47.12
74588;SHT31;63088;51.090;-115.358;2022-08-23T23:20:20;24.48;47.10
74588;SHT31;63088;51.090;-115.358;2022-08-23T23:23:09;24.49;47.06
74588;SHT31;63088;51.090;-115.358;2022-08-23T23:25:41;24.49;47.01
74588;SHT31;63088;51.090;-115.358;2022-08-23T23:28:10;24.50;46.98
74588;SHT31;63088;51.090;-115.358;2022-08-23T23:30:39;24.51;46.92
74588;SHT31;63088;51.090;-115.358;2022-08-23T23:33:08;24.53;46.86
74588;SHT31;63088;51.090;-115.358;2022-08-23T23:35:39;24.53;46.82
74588;SHT31;63088;51.090;-115.358;2022-08-23T23:38:07;24.55;46.80
74588;SHT31;63088;51.090;-115.358;2022-08-23T23:40:37;24.56;46.73
74588;SHT31;63088;51.090;-115.358;2022-08-23T23:43:05;24.57;46.69
74588;SHT31;63088;51.090;-115.358;2022-08-23T23:45:35;24.57;46.64
74588;SHT31;63088;51.090;-115.358;2022-08-23T23:48:02;24.58;46.61
74588;SHT31;63088;51.090;-115.358;2022-08-23T23:50:29;24.59;46.60
74588;SHT31;63088;51.090;-115.358;2022-08-23T23:52:56;24.61;46.55
74588;SHT31;63088;51.090;-115.358;2022-08-23T23:55:26;24.62;46.50
74588;SHT31;63088;51.090;-115.358;2022-08-23T23:57:54;24.62;46.48
